Time;durP1;ratioP1;P1;durP2;ratioP2;P2;SDS_P1;SDS_P2;PMS_P1;PMS_P2;Temp;Humidity;BMP_temperature;BMP_pressure;BME280_temperature;BME280_humidity;BME280_pressure;Samples;Min_cycle;Max_cycle;Signal;HPM_P1;HPM_P2
2022/06/17 00:00:13;;;;;;;8.55;4.95;;;;;;;;;;5070115;27;95800;-71
2022/06/17 00:02:39;;;;;;;8.10;5.32;;;;;;;;;;5064537;27;96815;-72
2022/06/17 00:05:06;;;;;;;8.45;5.57;;;;;;;;;;5064057;27;97592;-71
2022/06/17 00:07:33;;;;;;;7.82;4.78;;;;;;;;;;5051549;27;95348;-72
2022/06/17 00:10:03;;;;;;;9.60;5.68;;;;;;;;;;5053465;27;97260;-71
2022/06/17 00:12:29;;;;;;;9.52;5.70;;;;;;;;;;5062542;27;97581;-72
2022/06/17 00:15:14;;;;;;;8.55;5.07;;;;;;;;;;5071551;27;95768;-71
2022/06/17 00:17:53;;;;;;;7.90;4.85;;;;;;;;;;5064846;27;97334;-72
2022/06/17 00:20:21;;;;;;;19.98;5.15;;;;;;;;;;5060414;27;95802;-72
2022/06/17 00:22:47;;;;;;;10.65;4.63;;;;;;;;;;5053531;27;97072;-71
2022/06/17 00:25:20;;;;;;;7.82;5.13;;;;;;;;;;5059598;27;97828;-71
2022/06/17 00:27:46;;;;;;;7.53;4.82;;;;;;;;;;5070545;27;95534;-73
2022/06/17 00:30:23;;;;;;;7.57;4.93;;;;;;;;;;5069117;27;97211;-73
2022/06/17 00:32:54;;;;;;;9.75;5.35;;;;;;;;;;5055182;27;97318;-72
2022/06/17 00:35:21;;;;;;;8.65;5.10;;;;;;;;;;5057443;27;95651;-73
2022/06/17 00:37:47;;;;;;;8.93;5.20;;;;;;;;;;5039312;27;97595;-72
2022/06/17 00:40:16;;;;;;;8.27;5.35;;;;;;;;;;5058583;27;95369;-73
2022/06/17 00:42:43;;;;;;;9.38;5.40;;;;;;;;;;5066452;27;96745;-72
2022/06/17 00:45:20;;;;;;;9.95;6.10;;;;;;;;;;5055723;27;97275;-72
2022/06/17 00:47:53;;;;;;;9.23;5.85;;;;;;;;;;5068611;27;95207;-72
2022/06/17 00:50:24;;;;;;;9.20;5.93;;;;;;;;;;5050694;27;97125;-72
2022/06/17 00:52:56;;;;;;;8.20;5.75;;;;;;;;;;5060621;27;97753;-73
2022/06/17 00:55:32;;;;;;;9.15;6.15;;;;;;;;;;5058650;27;95378;-72
2022/06/17 00:58:00;;;;;;;10.27;6.28;;;;;;;;;;5066097;27;96811;-72
2022/06/17 01:00:27;;;;;;;10.15;6.60;;;;;;;;;;5079637;27;95347;-71
2022/06/17 01:02:59;;;;;;;10.00;6.50;;;;;;;;;;5078738;27;96901;-71
2022/06/17 01:05:28;;;;;;;9.48;6.15;;;;;;;;;;5051491;27;97287;-72
2022/06/17 01:07:58;;;;;;;9.75;5.78;;;;;;;;;;5040184;27;97193;-71
2022/06/17 01:10:25;;;;;;;8.35;5.72;;;;;;;;;;5051710;27;97884;-71
2022/06/17 01:12:54;;;;;;;8.93;5.90;;;;;;;;;;5050816;27;97331;-71
2022/06/17 01:15:22;;;;;;;9.70;6.43;;;;;;;;;;5051742;27;95319;-72
2022/06/17 01:17:49;;;;;;;9.85;5.95;;;;;;;;;;5052233;27;97160;-72
2022/06/17 01:20:16;;;;;;;8.95;5.85;;;;;;;;;;5054436;27;97497;-73
2022/06/17 01:22:47;;;;;;;9.30;6.03;;;;;;;;;;5033295;27;97263;-72
2022/06/17 01:25:19;;;;;;;9.50;6.07;;;;;;;;;;5050846;27;97451;-71
2022/06/17 01:27:47;;;;;;;12.32;6.60;;;;;;;;;;5062065;27;95574;-72
2022/06/17 01:30:17;;;;;;;9.52;6.15;;;;;;;;;;5083935;27;96893;-71
2022/06/17 01:32:51;;;;;;;9.70;6.32;;;;;;;;;;5051302;27;97572;-73
2022/06/17 01:35:19;;;;;;;8.70;6.20;;;;;;;;;;5064030;27;95383;-73
2022/06/17 01:37:45;;;;;;;8.88;6.05;;;;;;;;;;5052297;27;96887;-73
2022/06/17 01:40:12;;;;;;;17.00;6.63;;;;;;;;;;5052727;27;97648;-73
2022/06/17 01:42:39;;;;;;;9.10;6.07;;;;;;;;;;5060216;27;95969;-73
2022/06/17 01:45:06;;;;;;;9.52;6.20;;;;;;;;;;5052752;27;97308;-72
2022/06/17 01:47:34;;;;;;;11.27;7.10;;;;;;;;;;5091797;27;95591;-73
2022/06/17 01:50:05;;;;;;;9.23;6.18;;;;;;;;;;5065498;27;96838;-73
2022/06/17 01:52:40;;;;;;;11.95;5.97;;;;;;;;;;5062555;27;97363;-73
2022/06/17 01:55:12;;;;;;;9.57;6.07;;;;;;;;;;5070779;27;96135;-73
2022/06/17 01:57:44;;;;;;;9.68;5.70;;;;;;;;;;5070975;27;96762;-72
2022/06/17 02:00:14;;;;;;;8.73;5.65;;;;;;;;;;5055704;27;97348;-73
2022/06/17 02:02:41;;;;;;;9.00;6.03;;;;;;;;;;5050108;27;95397;-72
2022/06/17 02:05:09;;;;;;;15.70;6.45;;;;;;;;;;5059091;27;96684;-73
2022/06/17 02:07:45;;;;;;;9.43;6.30;;;;;;;;;;5070855;27;95247;-73
2022/06/17 02:10:11;;;;;;;17.58;6.40;;;;;;;;;;5035586;27;97206;-72
2022/06/17 02:12:38;;;;;;;7.55;5.03;;;;;;;;;;5052862;27;97286;-72
2022/06/17 02:15:05;;;;;;;8.45;5.20;;;;;;;;;;5069296;27;95363;-72
2022/06/17 02:17:34;;;;;;;7.70;5.07;;;;;;;;;;5060059;27;96918;-72
2022/06/17 02:20:00;;;;;;;7.57;5.22;;;;;;;;;;5050227;27;97315;-73
2022/06/17 02:22:30;;;;;;;8.10;5.22;;;;;;;;;;5042972;27;95744;-72
2022/06/17 02:24:58;;;;;;;8.07;5.38;;;;;;;;;;5050086;27;96817;-72
2022/06/17 02:27:25;;;;;;;7.72;5.30;;;;;;;;;;5056414;27;97435;-72
2022/06/17 02:29:51;;;;;;;7.93;4.82;;;;;;;;;;5068548;27;96959;-72
2022/06/17 02:32:18;;;;;;;6.93;4.60;;;;;;;;;;5049120;27;97186;-72
2022/06/17 02:34:48;;;;;;;8.43;5.72;;;;;;;;;;5052470;27;95760;-72
2022/06/17 02:37:16;;;;;;;8.32;5.18;;;;;;;;;;5052342;27;97138;-72
2022/06/17 02:39:45;;;;;;;9.45;5.82;;;;;;;;;;5065006;27;97724;-72
2022/06/17 02:42:34;;;;;;;8.93;5.45;;;;;;;;;;5070912;27;95939;-73
2022/06/17 02:45:03;;;;;;;6.60;4.18;;;;;;;;;;5044774;27;96880;-73
2022/06/17 02:47:29;;;;;;;7.70;5.13;;;;;;;;;;5053052;27;97886;-73
2022/06/17 02:49:56;;;;;;;8.40;5.60;;;;;;;;;;5049470;27;97171;-73
2022/06/17 02:52:30;;;;;;;8.38;5.28;;;;;;;;;;5049883;27;97323;-73
2022/06/17 02:55:01;;;;;;;7.65;5.05;;;;;;;;;;5050067;27;95365;-72
2022/06/17 02:57:30;;;;;;;8.45;5.45;;;;;;;;;;5053962;27;96800;-72
2022/06/17 03:00:02;;;;;;;7.68;5.38;;;;;;;;;;5056940;27;97772;-72
2022/06/17 03:02:32;;;;;;;9.25;5.43;;;;;;;;;;5060007;27;95341;-73
2022/06/17 03:04:59;;;;;;;9.35;5.22;;;;;;;;;;5051778;27;97524;-72
2022/06/17 03:07:28;;;;;;;8.40;4.80;;;;;;;;;;5069077;27;96542;-72
2022/06/17 03:09:54;;;;;;;8.20;5.30;;;;;;;;;;5058746;27;95539;-72
2022/06/17 03:12:25;;;;;;;11.55;6.03;;;;;;;;;;5051120;27;96386;-72
2022/06/17 03:15:03;;;;;;;9.35;6.10;;;;;;;;;;5062159;27;95457;-72
2022/06/17 03:17:30;;;;;;;12.95;5.63;;;;;;;;;;5070285;27;96871;-72
2022/06/17 03:19:58;;;;;;;8.70;5.45;;;;;;;;;;5053324;27;97246;-72
2022/06/17 03:22:25;;;;;;;8.73;5.85;;;;;;;;;;5048305;27;95086;-71
2022/06/17 03:24:59;;;;;;;8.80;5.70;;;;;;;;;;5049550;27;96732;-72
2022/06/17 03:27:46;;;;;;;9.35;5.72;;;;;;;;;;5070025;27;97459;-72
2022/06/17 03:30:16;;;;;;;8.32;5.47;;;;;;;;;;5048411;27;96206;-72
2022/06/17 03:32:44;;;;;;;9.85;5.63;;;;;;;;;;5071251;27;97438;-74
2022/06/17 03:35:16;;;;;;;9.07;5.40;;;;;;;;;;5069081;27;95408;-72
2022/06/17 03:37:58;;;;;;;7.10;4.65;;;;;;;;;;5059570;27;96843;-72
2022/06/17 03:40:24;;;;;;;7.87;4.90;;;;;;;;;;5059131;27;97381;-72
2022/06/17 03:42:54;;;;;;;8.43;5.35;;;;;;;;;;5050252;27;95473;-72
2022/06/17 03:45:27;;;;;;;9.55;5.78;;;;;;;;;;5049398;27;97483;-73
2022/06/17 03:47:59;;;;;;;8.27;5.40;;;;;;;;;;5049086;27;97326;-72
2022/06/17 03:50:36;;;;;;;8.18;5.25;;;;;;;;;;5052956;27;96122;-72
2022/06/17 03:53:05;;;;;;;8.75;5.18;;;;;;;;;;5084553;27;96708;-72
2022/06/17 03:55:32;;;;;;;8.15;5.28;;;;;;;;;;5053847;27;97701;-72
2022/06/17 03:58:00;;;;;;;8.07;5.47;;;;;;;;;;5051466;27;97179;-71
2022/06/17 04:00:41;;;;;;;9.10;5.78;;;;;;;;;;5056122;27;97663;-72
2022/06/17 04:03:12;;;;;;;8.98;5.72;;;;;;;;;;5048864;27;95536;-72
2022/06/17 04:05:40;;;;;;;7.40;5.17;;;;;;;;;;5048457;27;96947;-72
2022/06/17 04:08:09;;;;;;;8.38;5.50;;;;;;;;;;5048925;27;97365;-72
2022/06/17 04:10:35;;;;;;;9.38;6.20;;;;;;;;;;5052125;27;97001;-71
2022/06/17 04:13:02;;;;;;;7.35;5.18;;;;;;;;;;5068403;27;95711;-73
2022/06/17 04:15:31;;;;;;;8.82;6.10;;;;;;;;;;5068330;27;97483;-73
2022/06/17 04:17:58;;;;;;;7.65;5.07;;;;;;;;;;5075783;27;95305;-72
2022/06/17 04:20:29;;;;;;;8.82;5.93;;;;;;;;;;5067004;27;98018;-72
2022/06/17 04:22:56;;;;;;;8.57;5.97;;;;;;;;;;5048875;27;95608;-72
2022/06/17 04:25:44;;;;;;;9.20;6.10;;;;;;;;;;5063981;27;97128;-72
2022/06/17 04:28:12;;;;;;;9.23;5.78;;;;;;;;;;5069027;27;97338;-72
2022/06/17 04:30:41;;;;;;;7.75;5.25;;;;;;;;;;5040758;27;96610;-72
2022/06/17 04:33:14;;;;;;;8.43;5.60;;;;;;;;;;5061209;27;97238;-71
2022/06/17 04:35:40;;;;;;;8.38;5.68;;;;;;;;;;5072400;27;97140;-72
2022/06/17 04:38:08;;;;;;;10.80;5.40;;;;;;;;;;5072304;27;95212;-72
2022/06/17 20:07:33;;;;;;;2.78;1.73;;;;;;;;;;5052064;27;1294890;-83
2022/06/17 20:10:00;;;;;;;3.85;1.90;;;;;;;;;;5087466;27;98051;-81
2022/06/17 20:12:30;;;;;;;3.97;2.30;;;;;;;;;;5082989;27;95448;-78
2022/06/17 20:14:59;;;;;;;7.50;2.65;;;;;;;;;;5077017;27;96710;-74
2022/06/17 20:17:25;;;;;;;4.60;2.38;;;;;;;;;;5070307;27;97321;-72
2022/06/17 20:19:51;;;;;;;5.25;2.35;;;;;;;;;;5083386;27;95249;-73
2022/06/17 20:22:18;;;;;;;6.35;2.30;;;;;;;;;;5074413;27;96873;-73
2022/06/17 20:24:46;;;;;;;3.83;2.13;;;;;;;;;;5079364;27;97242;-71
2022/06/17 20:27:15;;;;;;;5.20;2.42;;;;;;;;;;5089701;27;95471;-73
2022/06/17 20:29:42;;;;;;;4.45;2.13;;;;;;;;;;5079942;27;96353;-78
2022/06/17 20:32:13;;;;;;;4.05;2.17;;;;;;;;;;5076237;27;95415;-74
2022/06/17 20:34:40;;;;;;;7.10;2.20;;;;;;;;;;5072080;27;97112;-73
2022/06/17 20:37:06;;;;;;;5.50;2.47;;;;;;;;;;5065371;27;97368;-72
2022/06/17 20:39:33;;;;;;;4.35;2.40;;;;;;;;;;5068885;27;95511;-74
2022/06/17 20:42:04;;;;;;;5.25;2.45;;;;;;;;;;5085620;27;96847;-72
2022/06/17 20:50:01;;;;;;;3.88;2.05;;;;;;;;;;5073236;27;97179;-72
2022/06/17 20:52:27;;;;;;;4.82;2.10;;;;;;;;;;5075337;27;95978;-73
2022/06/17 20:54:54;;;;;;;3.40;2.10;;;;;;;;;;5084254;27;96454;-73
2022/06/17 21:00:13;;;;;;;3.92;2.00;;;;;;;;;;5069585;27;96237;-73
2022/06/17 21:02:39;;;;;;;2.45;1.70;;;;;;;;;;5078586;27;97265;-74
2022/06/17 21:05:06;;;;;;;3.53;2.08;;;;;;;;;;5083628;27;97572;-74
2022/06/17 21:07:33;;;;;;;8.70;2.15;;;;;;;;;;5072432;27;95263;-73
2022/06/17 21:10:00;;;;;;;4.03;2.10;;;;;;;;;;5069793;27;96745;-73
2022/06/17 21:12:26;;;;;;;3.85;2.30;;;;;;;;;;5089583;27;97428;-73
2022/06/17 21:14:53;;;;;;;4.38;2.30;;;;;;;;;;5083417;27;96407;-74
2022/06/17 21:17:19;;;;;;;3.85;2.17;;;;;;;;;;5079929;27;97232;-73
2022/06/17 21:19:46;;;;;;;4.20;2.30;;;;;;;;;;5061400;27;95542;-73
2022/06/17 21:22:14;;;;;;;6.72;2.70;;;;;;;;;;5067766;27;95874;-74
2022/06/17 21:24:41;;;;;;;5.85;2.70;;;;;;;;;;5062210;27;98045;-74
2022/06/17 21:27:11;;;;;;;4.38;2.30;;;;;;;;;;5051228;27;95783;-74
2022/06/17 21:29:38;;;;;;;4.53;2.50;;;;;;;;;;5065881;27;97250;-74
2022/06/17 21:32:05;;;;;;;3.75;2.20;;;;;;;;;;5062196;27;97349;-73
2022/06/17 21:34:31;;;;;;;3.42;2.20;;;;;;;;;;5060514;27;96020;-73
2022/06/17 21:36:58;;;;;;;3.83;2.30;;;;;;;;;;5055735;27;97302;-72
2022/06/17 21:39:27;;;;;;;3.42;2.17;;;;;;;;;;5051590;27;95414;-72
2022/06/17 21:41:54;;;;;;;3.78;2.30;;;;;;;;;;5060280;27;96750;-72
2022/06/17 21:44:20;;;;;;;4.50;2.30;;;;;;;;;;5071482;27;97303;-72
2022/06/17 21:46:48;;;;;;;4.25;2.40;;;;;;;;;;5064573;27;95701;-72
2022/06/17 21:49:15;;;;;;;5.43;2.40;;;;;;;;;;5062720;27;96711;-74
2022/06/17 21:51:49;;;;;;;4.20;2.92;;;;;;;;;;5056708;27;97677;-73
2022/06/17 21:54:21;;;;;;;5.00;3.00;;;;;;;;;;5068409;27;95674;-72
2022/06/17 21:56:50;;;;;;;3.85;2.55;;;;;;;;;;5060647;27;96820;-72
2022/06/17 21:59:41;;;;;;;3.88;2.30;;;;;;;;;;5053384;27;95320;-72
2022/06/17 22:02:16;;;;;;;4.72;2.90;;;;;;;;;;5049955;27;98208;-74
2022/06/17 22:04:43;;;;;;;4.32;2.88;;;;;;;;;;5050766;27;97419;-71
2022/06/17 22:07:13;;;;;;;5.78;3.17;;;;;;;;;;5050272;27;95378;-72
2022/06/17 22:09:41;;;;;;;5.82;2.70;;;;;;;;;;5053154;27;96768;-72
2022/06/17 22:12:11;;;;;;;3.88;2.67;;;;;;;;;;5070032;27;97702;-72
2022/06/17 22:14:38;;;;;;;5.30;2.65;;;;;;;;;;5071222;27;95366;-73
2022/06/17 22:17:06;;;;;;;4.05;2.70;;;;;;;;;;5058630;27;95567;-73
2022/06/17 22:19:36;;;;;;;5.25;3.00;;;;;;;;;;5053899;27;95406;-74
2022/06/17 22:22:10;;;;;;;5.70;2.60;;;;;;;;;;5067291;27;97977;-73
2022/06/17 22:24:37;;;;;;;6.05;2.83;;;;;;;;;;5070722;27;97502;-72
2022/06/17 22:27:05;;;;;;;5.00;3.00;;;;;;;;;;5070333;27;95485;-73
2022/06/17 22:29:31;;;;;;;5.55;2.90;;;;;;;;;;5058932;27;96994;-73
2022/06/17 22:32:03;;;;;;;4.32;2.75;;;;;;;;;;5050283;27;96150;-72
2022/06/17 22:34:30;;;;;;;5.13;2.83;;;;;;;;;;5048784;27;95940;-74
2022/06/17 22:36:57;;;;;;;4.28;2.70;;;;;;;;;;5051022;27;96811;-73
2022/06/17 22:39:24;;;;;;;3.72;2.50;;;;;;;;;;5059704;27;97338;-73
2022/06/17 22:41:51;;;;;;;5.90;2.60;;;;;;;;;;5070596;27;96835;-74
2022/06/17 22:44:17;;;;;;;4.32;2.70;;;;;;;;;;5070311;27;97614;-72
2022/06/17 22:46:44;;;;;;;5.47;2.50;;;;;;;;;;5069572;27;95308;-73
2022/06/17 22:49:13;;;;;;;5.88;2.53;;;;;;;;;;5062277;27;95541;-73
2022/06/17 22:51:39;;;;;;;4.03;2.60;;;;;;;;;;5050364;27;97342;-74
2022/06/17 22:54:08;;;;;;;4.10;2.67;;;;;;;;;;5050520;27;95365;-74
2022/06/17 22:56:35;;;;;;;4.32;2.80;;;;;;;;;;5050093;27;96418;-74
2022/06/17 22:59:01;;;;;;;5.10;3.10;;;;;;;;;;5050470;27;97863;-73
2022/06/17 23:01:28;;;;;;;4.00;2.58;;;;;;;;;;5064435;27;95278;-73
2022/06/17 23:06:40;;;;;;;5.30;3.20;;;;;;;;;;5049428;27;95691;-73
2022/06/17 23:09:14;;;;;;;9.73;3.25;;;;;;;;;;5049030;27;97502;-71
2022/06/17 23:11:40;;;;;;;4.95;3.08;;;;;;;;;;5048503;27;97272;-71
2022/06/17 23:14:10;;;;;;;5.22;3.00;;;;;;;;;;5049976;27;95426;-71
2022/06/17 23:16:36;;;;;;;5.13;2.90;;;;;;;;;;5057753;27;96762;-72
2022/06/17 23:21:49;;;;;;;6.13;3.45;;;;;;;;;;5049773;27;95818;-73
2022/06/17 23:24:16;;;;;;;7.05;3.25;;;;;;;;;;5058868;27;96811;-72
2022/06/17 23:26:42;;;;;;;5.35;3.30;;;;;;;;;;5049856;27;96372;-72
2022/06/17 23:29:08;;;;;;;6.10;3.85;;;;;;;;;;5050161;27;96838;-73
2022/06/17 23:31:37;;;;;;;6.78;3.85;;;;;;;;;;5048944;27;97811;-72
2022/06/17 23:34:04;;;;;;;5.78;4.00;;;;;;;;;;5049853;27;95538;-72
2022/06/17 23:36:32;;;;;;;8.38;4.22;;;;;;;;;;5050285;27;96910;-72
2022/06/17 23:39:05;;;;;;;5.47;3.63;;;;;;;;;;5054342;27;97295;-71
2022/06/17 23:41:32;;;;;;;5.90;3.80;;;;;;;;;;5049271;27;95592;-71
2022/06/17 23:43:58;;;;;;;6.00;3.75;;;;;;;;;;5061814;27;96478;-71
2022/06/17 23:46:26;;;;;;;7.60;4.55;;;;;;;;;;5073093;27;97351;-71
2022/06/17 23:48:58;;;;;;;10.05;5.30;;;;;;;;;;5069878;27;96705;-71
2022/06/17 23:51:25;;;;;;;11.65;6.43;;;;;;;;;;5068740;27;97285;-72
2022/06/17 23:53:52;;;;;;;20.00;9.02;;;;;;;;;;5062401;27;95778;-71
2022/06/17 23:56:20;;;;;;;20.33;11.50;;;;;;;;;;5049660;27;96748;-71
2022/06/17 23:58:58;;;;;;;20.63;11.18;;;;;;;;;;5048028;27;97321;-71
